sensor_id;sensor_type;location;lat;lon;timestamp;P1;durP1;ratioP1;P2;durP2;ratioP2
66927;SDS011;59882;45.624;11.698;2023-01-08T00:02:16;90.13;;;49.30;;
66927;SDS011;59882;45.624;11.698;2023-01-08T00:04:42;93.93;;;51.13;;
66927;SDS011;59882;45.624;11.698;2023-01-08T00:07:08;88.83;;;48.57;;
66927;SDS011;59882;45.624;11.698;2023-01-08T00:09:34;92.88;;;50.33;;
66927;SDS011;59882;45.624;11.698;2023-01-08T00:12:00;91.63;;;49.08;;
66927;SDS011;59882;45.624;11.698;2023-01-08T00:14:25;87.40;;;48.97;;
66927;SDS011;59882;45.624;11.698;2023-01-08T00:16:51;91.03;;;50.10;;
66927;SDS011;59882;45.624;11.698;2023-01-08T00:19:17;85.55;;;50.22;;
66927;SDS011;59882;45.624;11.698;2023-01-08T00:21:42;93.03;;;51.05;;
66927;SDS011;59882;45.624;11.698;2023-01-08T00:24:08;90.63;;;53.03;;
66927;SDS011;59882;45.624;11.698;2023-01-08T00:26:34;88.27;;;50.87;;
66927;SDS011;59882;45.624;11.698;2023-01-08T00:28:59;88.60;;;49.47;;
66927;SDS011;59882;45.624;11.698;2023-01-08T00:31:25;93.53;;;50.10;;
66927;SDS011;59882;45.624;11.698;2023-01-08T00:33:51;87.25;;;51.38;;
66927;SDS011;59882;45.624;11.698;2023-01-08T00:36:17;87.40;;;48.80;;
66927;SDS011;59882;45.624;11.698;2023-01-08T00:38:43;88.10;;;49.97;;
66927;SDS011;59882;45.624;11.698;2023-01-08T00:41:10;83.82;;;49.15;;
66927;SDS011;59882;45.624;11.698;2023-01-08T00:43:37;79.88;;;45.92;;
66927;SDS011;59882;45.624;11.698;2023-01-08T00:46:03;85.63;;;47.27;;
66927;SDS011;59882;45.624;11.698;2023-01-08T00:48:29;93.72;;;50.88;;
66927;SDS011;59882;45.624;11.698;2023-01-08T00:50:57;83.88;;;48.50;;
66927;SDS011;59882;45.624;11.698;2023-01-08T00:53:25;89.00;;;48.70;;
66927;SDS011;59882;45.624;11.698;2023-01-08T00:55:57;85.47;;;48.88;;
66927;SDS011;59882;45.624;11.698;2023-01-08T00:58:24;85.20;;;48.38;;
66927;SDS011;59882;45.624;11.698;2023-01-08T01:00:49;87.17;;;45.67;;
66927;SDS011;59882;45.624;11.698;2023-01-08T01:03:15;83.33;;;45.83;;
66927;SDS011;59882;45.624;11.698;2023-01-08T01:05:41;83.65;;;46.40;;
66927;SDS011;59882;45.624;11.698;2023-01-08T01:08:06;80.20;;;45.20;;
66927;SDS011;59882;45.624;11.698;2023-01-08T01:10:32;77.55;;;45.63;;
66927;SDS011;59882;45.624;11.698;2023-01-08T01:12:57;76.63;;;43.53;;
66927;SDS011;59882;45.624;11.698;2023-01-08T01:15:23;83.87;;;46.03;;
66927;SDS011;59882;45.624;11.698;2023-01-08T01:17:49;83.30;;;46.83;;
66927;SDS011;59882;45.624;11.698;2023-01-08T01:20:15;82.50;;;45.93;;
66927;SDS011;59882;45.624;11.698;2023-01-08T01:22:41;78.90;;;46.25;;
66927;SDS011;59882;45.624;11.698;2023-01-08T01:25:07;81.43;;;44.75;;
66927;SDS011;59882;45.624;11.698;2023-01-08T01:27:33;74.45;;;43.25;;
66927;SDS011;59882;45.624;11.698;2023-01-08T01:29:59;80.35;;;44.22;;
66927;SDS011;59882;45.624;11.698;2023-01-08T01:32:25;80.43;;;44.87;;
66927;SDS011;59882;45.624;11.698;2023-01-08T01:34:51;76.30;;;43.63;;
66927;SDS011;59882;45.624;11.698;2023-01-08T01:37:16;77.07;;;45.13;;
66927;SDS011;59882;45.624;11.698;2023-01-08T01:39:42;84.82;;;44.80;;
66927;SDS011;59882;45.624;11.698;2023-01-08T01:42:11;82.30;;;46.53;;
66927;SDS011;59882;45.624;11.698;2023-01-08T01:44:57;81.53;;;44.17;;
66927;SDS011;59882;45.624;11.698;2023-01-08T01:47:31;81.73;;;44.73;;
66927;SDS011;59882;45.624;11.698;2023-01-08T01:52:34;80.75;;;46.03;;
66927;SDS011;59882;45.624;11.698;2023-01-08T01:55:04;82.75;;;44.78;;
66927;SDS011;59882;45.624;11.698;2023-01-08T01:57:32;78.80;;;45.47;;
66927;SDS011;59882;45.624;11.698;2023-01-08T01:59:58;82.13;;;44.43;;
66927;SDS011;59882;45.624;11.698;2023-01-08T02:02:28;81.68;;;44.33;;
66927;SDS011;59882;45.624;11.698;2023-01-08T02:04:56;74.97;;;44.17;;
66927;SDS011;59882;45.624;11.698;2023-01-08T02:07:37;83.20;;;46.17;;
66927;SDS011;59882;45.624;11.698;2023-01-08T02:10:17;84.43;;;45.27;;
66927;SDS011;59882;45.624;11.698;2023-01-08T02:12:53;81.63;;;45.15;;
66927;SDS011;59882;45.624;11.698;2023-01-08T02:28:40;85.80;;;45.57;;
66927;SDS011;59882;45.624;11.698;2023-01-08T02:31:10;81.83;;;45.57;;
66927;SDS011;59882;45.624;11.698;2023-01-08T02:33:37;84.53;;;45.55;;
66927;SDS011;59882;45.624;11.698;2023-01-08T02:41:29;85.43;;;47.63;;
66927;SDS011;59882;45.624;11.698;2023-01-08T02:44:03;80.03;;;45.30;;
66927;SDS011;59882;45.624;11.698;2023-01-08T02:46:32;85.53;;;46.63;;
66927;SDS011;59882;45.624;11.698;2023-01-08T02:49:01;89.38;;;49.67;;
66927;SDS011;59882;45.624;11.698;2023-01-08T02:51:32;87.13;;;49.45;;
66927;SDS011;59882;45.624;11.698;2023-01-08T02:54:02;87.37;;;48.97;;
66927;SDS011;59882;45.624;11.698;2023-01-08T02:56:35;88.35;;;47.45;;
66927;SDS011;59882;45.624;11.698;2023-01-08T02:59:03;87.50;;;46.55;;
66927;SDS011;59882;45.624;11.698;2023-01-08T03:01:31;78.60;;;44.80;;
66927;SDS011;59882;45.624;11.698;2023-01-08T03:03:59;86.22;;;46.13;;
66927;SDS011;59882;45.624;11.698;2023-01-08T03:06:29;87.20;;;46.93;;
66927;SDS011;59882;45.624;11.698;2023-01-08T03:08:56;78.60;;;43.58;;
66927;SDS011;59882;45.624;11.698;2023-01-08T03:11:23;80.55;;;45.80;;
66927;SDS011;59882;45.624;11.698;2023-01-08T03:13:58;82.00;;;44.78;;
66927;SDS011;59882;45.624;11.698;2023-01-08T03:16:29;79.43;;;44.97;;
66927;SDS011;59882;45.624;11.698;2023-01-08T03:19:21;80.97;;;44.27;;
66927;SDS011;59882;45.624;11.698;2023-01-08T03:21:49;76.10;;;43.08;;
66927;SDS011;59882;45.624;11.698;2023-01-08T03:24:21;75.13;;;43.20;;
66927;SDS011;59882;45.624;11.698;2023-01-08T03:26:52;77.35;;;43.75;;
66927;SDS011;59882;45.624;11.698;2023-01-08T03:29:22;82.93;;;43.63;;
66927;SDS011;59882;45.624;11.698;2023-01-08T03:31:49;77.07;;;43.07;;
66927;SDS011;59882;45.624;11.698;2023-01-08T03:34:18;80.68;;;42.88;;
66927;SDS011;59882;45.624;11.698;2023-01-08T03:36:45;75.05;;;41.88;;
66927;SDS011;59882;45.624;11.698;2023-01-08T03:39:15;86.30;;;43.28;;
66927;SDS011;59882;45.624;11.698;2023-01-08T03:41:48;73.90;;;42.28;;
66927;SDS011;59882;45.624;11.698;2023-01-08T03:44:17;82.83;;;44.33;;
66927;SDS011;59882;45.624;11.698;2023-01-08T03:46:43;81.47;;;42.85;;
66927;SDS011;59882;45.624;11.698;2023-01-08T03:49:14;74.90;;;42.80;;
66927;SDS011;59882;45.624;11.698;2023-01-08T03:51:44;78.13;;;43.53;;
66927;SDS011;59882;45.624;11.698;2023-01-08T03:54:19;74.20;;;42.42;;
66927;SDS011;59882;45.624;11.698;2023-01-08T03:56:48;74.63;;;42.35;;
66927;SDS011;59882;45.624;11.698;2023-01-08T03:59:14;73.53;;;41.20;;
66927;SDS011;59882;45.624;11.698;2023-01-08T04:01:41;67.43;;;38.90;;
66927;SDS011;59882;45.624;11.698;2023-01-08T04:04:07;68.95;;;39.78;;
66927;SDS011;59882;45.624;11.698;2023-01-08T04:06:33;65.93;;;38.60;;
66927;SDS011;59882;45.624;11.698;2023-01-08T04:08:58;58.63;;;37.13;;
66927;SDS011;59882;45.624;11.698;2023-01-08T04:11:25;66.85;;;37.88;;
66927;SDS011;59882;45.624;11.698;2023-01-08T04:13:51;59.90;;;34.60;;
66927;SDS011;59882;45.624;11.698;2023-01-08T04:16:16;63.88;;;35.97;;
66927;SDS011;59882;45.624;11.698;2023-01-08T04:18:42;60.93;;;35.93;;
66927;SDS011;59882;45.624;11.698;2023-01-08T04:21:07;59.87;;;33.27;;
66927;SDS011;59882;45.624;11.698;2023-01-08T04:23:33;65.67;;;36.93;;
66927;SDS011;59882;45.624;11.698;2023-01-08T04:25:58;68.97;;;35.83;;
66927;SDS011;59882;45.624;11.698;2023-01-08T04:28:27;63.30;;;36.97;;
66927;SDS011;59882;45.624;11.698;2023-01-08T04:30:54;64.10;;;35.95;;
66927;SDS011;59882;45.624;11.698;2023-01-08T04:33:19;61.57;;;35.13;;
66927;SDS011;59882;45.624;11.698;2023-01-08T04:35:45;63.33;;;35.67;;
66927;SDS011;59882;45.624;11.698;2023-01-08T04:38:11;61.03;;;35.00;;
66927;SDS011;59882;45.624;11.698;2023-01-08T04:40:36;59.90;;;35.83;;
66927;SDS011;59882;45.624;11.698;2023-01-08T04:43:02;61.67;;;36.50;;
66927;SDS011;59882;45.624;11.698;2023-01-08T04:45:28;63.05;;;36.50;;
66927;SDS011;59882;45.624;11.698;2023-01-08T04:47:56;60.03;;;36.57;;
66927;SDS011;59882;45.624;11.698;2023-01-08T04:50:23;66.88;;;37.65;;
66927;SDS011;59882;45.624;11.698;2023-01-08T04:52:50;63.13;;;37.60;;
66927;SDS011;59882;45.624;11.698;2023-01-08T04:55:15;61.33;;;37.37;;
66927;SDS011;59882;45.624;11.698;2023-01-08T04:57:41;63.28;;;37.25;;
66927;SDS011;59882;45.624;11.698;2023-01-08T05:00:07;66.10;;;38.53;;
66927;SDS011;59882;45.624;11.698;2023-01-08T05:02:33;61.50;;;36.95;;
66927;SDS011;59882;45.624;11.698;2023-01-08T05:04:59;62.67;;;36.15;;
66927;SDS011;59882;45.624;11.698;2023-01-08T05:07:25;68.20;;;37.37;;
66927;SDS011;59882;45.624;11.698;2023-01-08T05:09:52;62.92;;;37.83;;
66927;SDS011;59882;45.624;11.698;2023-01-08T05:12:19;70.80;;;38.80;;
66927;SDS011;59882;45.624;11.698;2023-01-08T05:14:44;62.70;;;37.20;;
66927;SDS011;59882;45.624;11.698;2023-01-08T05:17:10;69.13;;;37.03;;
66927;SDS011;59882;45.624;11.698;2023-01-08T05:19:36;68.90;;;38.00;;
66927;SDS011;59882;45.624;11.698;2023-01-08T05:22:01;69.57;;;38.57;;
66927;SDS011;59882;45.624;11.698;2023-01-08T05:24:27;65.13;;;38.05;;
66927;SDS011;59882;45.624;11.698;2023-01-08T05:26:52;69.83;;;38.23;;
66927;SDS011;59882;45.624;11.698;2023-01-08T05:29:18;60.70;;;35.90;;
66927;SDS011;59882;45.624;11.698;2023-01-08T05:31:44;63.50;;;36.53;;
66927;SDS011;59882;45.624;11.698;2023-01-08T05:34:10;63.72;;;35.45;;
66927;SDS011;59882;45.624;11.698;2023-01-08T05:36:35;52.10;;;32.47;;
66927;SDS011;59882;45.624;11.698;2023-01-08T05:39:01;59.33;;;33.27;;
66927;SDS011;59882;45.624;11.698;2023-01-08T05:41:27;61.80;;;34.45;;
66927;SDS011;59882;45.624;11.698;2023-01-08T05:43:53;59.63;;;35.07;;
66927;SDS011;59882;45.624;11.698;2023-01-08T05:46:18;58.28;;;34.22;;
66927;SDS011;59882;45.624;11.698;2023-01-08T05:48:44;61.23;;;35.23;;
66927;SDS011;59882;45.624;11.698;2023-01-08T05:51:10;67.07;;;36.27;;
66927;SDS011;59882;45.624;11.698;2023-01-08T05:53:35;61.13;;;36.53;;
66927;SDS011;59882;45.624;11.698;2023-01-08T05:56:02;60.13;;;34.77;;
66927;SDS011;59882;45.624;11.698;2023-01-08T05:58:30;65.72;;;36.42;;
66927;SDS011;59882;45.624;11.698;2023-01-08T06:01:09;60.40;;;35.50;;
66927;SDS011;59882;45.624;11.698;2023-01-08T06:03:37;59.83;;;34.88;;
66927;SDS011;59882;45.624;11.698;2023-01-08T06:06:04;59.13;;;33.80;;
66927;SDS011;59882;45.624;11.698;2023-01-08T06:08:31;56.63;;;34.05;;
66927;SDS011;59882;45.624;11.698;2023-01-08T06:10:58;59.00;;;36.13;;
66927;SDS011;59882;45.624;11.698;2023-01-08T06:13:25;61.88;;;35.55;;
66927;SDS011;59882;45.624;11.698;2023-01-08T06:15:51;61.50;;;36.95;;
66927;SDS011;59882;45.624;11.698;2023-01-08T06:18:16;59.90;;;35.67;;
66927;SDS011;59882;45.624;11.698;2023-01-08T06:20:42;58.47;;;35.27;;
66927;SDS011;59882;45.624;11.698;2023-01-08T06:23:08;58.85;;;34.53;;
66927;SDS011;59882;45.624;11.698;2023-01-08T06:25:33;62.30;;;37.47;;
66927;SDS011;59882;45.624;11.698;2023-01-08T06:27:59;61.28;;;34.97;;
66927;SDS011;59882;45.624;11.698;2023-01-08T06:30:25;58.00;;;35.35;;
66927;SDS011;59882;45.624;11.698;2023-01-08T06:32:54;58.73;;;34.50;;
66927;SDS011;59882;45.624;11.698;2023-01-08T06:35:21;64.45;;;36.03;;
66927;SDS011;59882;45.624;11.698;2023-01-08T06:37:46;59.33;;;34.00;;
66927;SDS011;59882;45.624;11.698;2023-01-08T06:40:12;62.65;;;36.40;;
66927;SDS011;59882;45.624;11.698;2023-01-08T06:42:38;57.67;;;32.83;;
66927;SDS011;59882;45.624;11.698;2023-01-08T06:45:04;60.95;;;35.22;;
66927;SDS011;59882;45.624;11.698;2023-01-08T06:47:31;59.63;;;34.67;;
66927;SDS011;59882;45.624;11.698;2023-01-08T06:49:57;63.00;;;34.97;;
66927;SDS011;59882;45.624;11.698;2023-01-08T06:52:23;60.67;;;35.40;;
66927;SDS011;59882;45.624;11.698;2023-01-08T06:54:49;58.95;;;35.60;;
66927;SDS011;59882;45.624;11.698;2023-01-08T06:57:15;62.67;;;37.03;;
66927;SDS011;59882;45.624;11.698;2023-01-08T06:59:40;54.10;;;34.10;;
66927;SDS011;59882;45.624;11.698;2023-01-08T07:02:09;57.03;;;33.23;;
66927;SDS011;59882;45.624;11.698;2023-01-08T07:04:40;60.90;;;34.80;;
66927;SDS011;59882;45.624;11.698;2023-01-08T07:07:06;58.88;;;34.92;;
66927;SDS011;59882;45.624;11.698;2023-01-08T07:09:35;61.65;;;35.28;;
66927;SDS011;59882;45.624;11.698;2023-01-08T07:12:01;65.57;;;34.40;;
66927;SDS011;59882;45.624;11.698;2023-01-08T07:14:26;59.00;;;35.22;;
66927;SDS011;59882;45.624;11.698;2023-01-08T07:16:52;62.17;;;34.83;;
66927;SDS011;59882;45.624;11.698;2023-01-08T07:19:17;59.67;;;35.60;;
66927;SDS011;59882;45.624;11.698;2023-01-08T07:21:43;57.07;;;34.43;;
66927;SDS011;59882;45.624;11.698;2023-01-08T07:24:09;58.47;;;36.03;;
66927;SDS011;59882;45.624;11.698;2023-01-08T07:26:35;57.45;;;33.80;;
66927;SDS011;59882;45.624;11.698;2023-01-08T07:29:00;51.33;;;32.15;;
66927;SDS011;59882;45.624;11.698;2023-01-08T07:31:26;56.23;;;32.53;;
66927;SDS011;59882;45.624;11.698;2023-01-08T07:33:52;54.10;;;32.45;;
66927;SDS011;59882;45.624;11.698;2023-01-08T07:36:17;52.67;;;32.87;;
66927;SDS011;59882;45.624;11.698;2023-01-08T07:38:47;50.10;;;30.42;;
66927;SDS011;59882;45.624;11.698;2023-01-08T07:41:13;53.47;;;32.05;;
66927;SDS011;59882;45.624;11.698;2023-01-08T07:43:39;53.53;;;30.63;;
66927;SDS011;59882;45.624;11.698;2023-01-08T07:46:05;52.83;;;30.80;;
66927;SDS011;59882;45.624;11.698;2023-01-08T07:48:31;48.57;;;30.77;;
66927;SDS011;59882;45.624;11.698;2023-01-08T07:51:02;51.42;;;30.70;;
66927;SDS011;59882;45.624;11.698;2023-01-08T07:53:30;58.15;;;32.00;;
66927;SDS011;59882;45.624;11.698;2023-01-08T07:56:00;49.43;;;33.37;;
66927;SDS011;59882;45.624;11.698;2023-01-08T07:58:30;51.15;;;32.88;;
66927;SDS011;59882;45.624;11.698;2023-01-08T08:00:56;53.25;;;33.35;;
66927;SDS011;59882;45.624;11.698;2023-01-08T08:03:22;52.07;;;30.63;;
66927;SDS011;59882;45.624;11.698;2023-01-08T08:05:49;47.72;;;29.35;;
66927;SDS011;59882;45.624;11.698;2023-01-08T08:08:15;47.40;;;29.80;;
66927;SDS011;59882;45.624;11.698;2023-01-08T08:10:41;45.67;;;27.77;;
66927;SDS011;59882;45.624;11.698;2023-01-08T08:13:08;43.47;;;27.83;;
66927;SDS011;59882;45.624;11.698;2023-01-08T08:15:34;44.87;;;25.60;;
66927;SDS011;59882;45.624;11.698;2023-01-08T08:18:00;40.35;;;26.20;;
66927;SDS011;59882;45.624;11.698;2023-01-08T08:20:26;42.65;;;25.55;;
66927;SDS011;59882;45.624;11.698;2023-01-08T08:22:58;43.63;;;26.83;;
66927;SDS011;59882;45.624;11.698;2023-01-08T08:25:28;44.35;;;26.55;;
66927;SDS011;59882;45.624;11.698;2023-01-08T08:27:55;43.33;;;25.40;;
66927;SDS011;59882;45.624;11.698;2023-01-08T08:30:22;42.05;;;26.75;;
66927;SDS011;59882;45.624;11.698;2023-01-08T08:32:48;46.03;;;26.40;;
66927;SDS011;59882;45.624;11.698;2023-01-08T08:35:14;41.83;;;25.42;;
66927;SDS011;59882;45.624;11.698;2023-01-08T08:37:40;43.03;;;25.65;;
66927;SDS011;59882;45.624;11.698;2023-01-08T08:40:06;40.47;;;26.80;;
66927;SDS011;59882;45.624;11.698;2023-01-08T08:42:32;43.03;;;26.23;;
66927;SDS011;59882;45.624;11.698;2023-01-08T08:44:58;41.80;;;25.70;;
66927;SDS011;59882;45.624;11.698;2023-01-08T08:47:23;46.37;;;26.73;;
66927;SDS011;59882;45.624;11.698;2023-01-08T08:49:49;44.87;;;25.87;;
66927;SDS011;59882;45.624;11.698;2023-01-08T08:52:14;41.23;;;25.30;;
66927;SDS011;59882;45.624;11.698;2023-01-08T08:54:40;41.97;;;25.77;;
66927;SDS011;59882;45.624;11.698;2023-01-08T08:57:08;39.43;;;24.80;;
66927;SDS011;59882;45.624;11.698;2023-01-08T08:59:34;40.58;;;25.38;;
66927;SDS011;59882;45.624;11.698;2023-01-08T09:02:00;40.63;;;26.70;;
66927;SDS011;59882;45.624;11.698;2023-01-08T09:04:32;40.10;;;25.80;;
66927;SDS011;59882;45.624;11.698;2023-01-08T09:06:58;42.58;;;27.40;;
66927;SDS011;59882;45.624;11.698;2023-01-08T09:09:24;44.00;;;26.52;;
66927;SDS011;59882;45.624;11.698;2023-01-08T09:11:51;44.30;;;25.95;;
66927;SDS011;59882;45.624;11.698;2023-01-08T09:14:17;41.20;;;27.13;;
66927;SDS011;59882;45.624;11.698;2023-01-08T09:16:43;40.23;;;25.57;;
66927;SDS011;59882;45.624;11.698;2023-01-08T09:19:08;42.27;;;26.20;;
66927;SDS011;59882;45.624;11.698;2023-01-08T09:21:34;42.90;;;25.63;;
66927;SDS011;59882;45.624;11.698;2023-01-08T09:24:01;41.35;;;25.27;;
66927;SDS011;59882;45.624;11.698;2023-01-08T09:26:26;40.42;;;26.85;;
66927;SDS011;59882;45.624;11.698;2023-01-08T09:28:54;45.17;;;27.00;;
66927;SDS011;59882;45.624;11.698;2023-01-08T09:31:20;40.95;;;26.55;;
66927;SDS011;59882;45.624;11.698;2023-01-08T09:33:46;42.15;;;27.55;;
66927;SDS011;59882;45.624;11.698;2023-01-08T09:36:13;47.13;;;30.05;;
66927;SDS011;59882;45.624;11.698;2023-01-08T09:38:38;46.97;;;29.33;;
66927;SDS011;59882;45.624;11.698;2023-01-08T09:41:05;48.80;;;28.55;;
66927;SDS011;59882;45.624;11.698;2023-01-08T09:43:35;46.87;;;29.87;;
66927;SDS011;59882;45.624;11.698;2023-01-08T09:46:03;53.80;;;32.65;;
66927;SDS011;59882;45.624;11.698;2023-01-08T09:48:38;55.80;;;33.20;;
66927;SDS011;59882;45.624;11.698;2023-01-08T09:51:09;55.22;;;33.33;;
66927;SDS011;59882;45.624;11.698;2023-01-08T09:53:37;50.10;;;30.85;;
66927;SDS011;59882;45.624;11.698;2023-01-08T09:56:03;50.80;;;31.83;;
66927;SDS011;59882;45.624;11.698;2023-01-08T10:01:15;49.08;;;31.35;;
66927;SDS011;59882;45.624;11.698;2023-01-08T10:03:46;47.83;;;30.58;;
66927;SDS011;59882;45.624;11.698;2023-01-08T10:06:15;47.80;;;30.17;;
66927;SDS011;59882;45.624;11.698;2023-01-08T10:08:41;51.63;;;32.85;;
66927;SDS011;59882;45.624;11.698;2023-01-08T10:11:07;50.88;;;30.67;;
66927;SDS011;59882;45.624;11.698;2023-01-08T10:13:35;47.37;;;28.63;;
66927;SDS011;59882;45.624;11.698;2023-01-08T10:16:06;48.72;;;28.65;;
66927;SDS011;59882;45.624;11.698;2023-01-08T10:18:34;45.38;;;29.73;;
66927;SDS011;59882;45.624;11.698;2023-01-08T10:21:01;45.65;;;28.02;;
66927;SDS011;59882;45.624;11.698;2023-01-08T10:23:26;49.03;;;29.73;;
66927;SDS011;59882;45.624;11.698;2023-01-08T10:25:57;49.30;;;30.73;;
66927;SDS011;59882;45.624;11.698;2023-01-08T10:28:25;46.80;;;29.42;;
66927;SDS011;59882;45.624;11.698;2023-01-08T10:30:52;45.97;;;28.40;;
66927;SDS011;59882;45.624;11.698;2023-01-08T10:33:24;43.70;;;27.80;;
66927;SDS011;59882;45.624;11.698;2023-01-08T10:35:57;52.42;;;32.63;;
66927;SDS011;59882;45.624;11.698;2023-01-08T10:38:29;49.58;;;31.77;;
66927;SDS011;59882;45.624;11.698;2023-01-08T10:41:02;46.78;;;30.42;;
66927;SDS011;59882;45.624;11.698;2023-01-08T10:43:33;50.63;;;31.87;;
66927;SDS011;59882;45.624;11.698;2023-01-08T10:46:24;48.97;;;30.70;;
66927;SDS011;59882;45.624;11.698;2023-01-08T10:48:53;48.45;;;30.33;;
66927;SDS011;59882;45.624;11.698;2023-01-08T10:51:23;50.75;;;32.13;;
66927;SDS011;59882;45.624;11.698;2023-01-08T10:53:50;55.35;;;34.10;;
66927;SDS011;59882;45.624;11.698;2023-01-08T10:56:27;49.40;;;31.37;;
66927;SDS011;59882;45.624;11.698;2023-01-08T10:58:54;53.33;;;33.38;;
66927;SDS011;59882;45.624;11.698;2023-01-08T11:01:21;53.75;;;34.88;;
66927;SDS011;59882;45.624;11.698;2023-01-08T11:03:50;55.28;;;35.15;;
66927;SDS011;59882;45.624;11.698;2023-01-08T11:06:30;71.75;;;41.53;;
66927;SDS011;59882;45.624;11.698;2023-01-08T11:11:23;66.45;;;37.75;;
66927;SDS011;59882;45.624;11.698;2023-01-08T11:14:00;47.03;;;30.23;;
66927;SDS011;59882;45.624;11.698;2023-01-08T11:16:45;45.85;;;29.73;;
66927;SDS011;59882;45.624;11.698;2023-01-08T11:19:16;39.53;;;25.77;;
66927;SDS011;59882;45.624;11.698;2023-01-08T11:22:05;44.85;;;29.90;;
66927;SDS011;59882;45.624;11.698;2023-01-08T11:24:49;41.95;;;27.50;;
66927;SDS011;59882;45.624;11.698;2023-01-08T11:27:33;42.27;;;26.53;;
66927;SDS011;59882;45.624;11.698;2023-01-08T11:30:03;39.63;;;25.75;;
66927;SDS011;59882;45.624;11.698;2023-01-08T11:35:11;41.30;;;26.38;;
66927;SDS011;59882;45.624;11.698;2023-01-08T11:37:56;41.95;;;27.90;;
66927;SDS011;59882;45.624;11.698;2023-01-08T11:40:30;49.20;;;29.70;;
66927;SDS011;59882;45.624;11.698;2023-01-08T11:51:48;49.95;;;29.55;;
66927;SDS011;59882;45.624;11.698;2023-01-08T12:03:03;44.43;;;28.97;;
66927;SDS011;59882;45.624;11.698;2023-01-08T12:05:46;43.65;;;27.58;;
66927;SDS011;59882;45.624;11.698;2023-01-08T12:17:02;42.77;;;26.10;;
66927;SDS011;59882;45.624;11.698;2023-01-08T12:20:02;41.05;;;26.67;;
66927;SDS011;59882;45.624;11.698;2023-01-08T12:22:44;46.70;;;28.38;;
66927;SDS011;59882;45.624;11.698;2023-01-08T12:27:52;48.60;;;27.73;;
66927;SDS011;59882;45.624;11.698;2023-01-08T12:33:52;42.90;;;25.00;;
66927;SDS011;59882;45.624;11.698;2023-01-08T12:36:23;48.58;;;27.55;;
66927;SDS011;59882;45.624;11.698;2023-01-08T12:38:59;47.47;;;27.52;;
66927;SDS011;59882;45.624;11.698;2023-01-08T12:41:29;48.30;;;28.52;;
66927;SDS011;59882;45.624;11.698;2023-01-08T12:43:58;44.33;;;27.13;;
66927;SDS011;59882;45.624;11.698;2023-01-08T12:46:28;46.20;;;28.42;;
66927;SDS011;59882;45.624;11.698;2023-01-08T12:48:57;46.13;;;29.08;;
66927;SDS011;59882;45.624;11.698;2023-01-08T13:04:50;44.40;;;27.58;;
66927;SDS011;59882;45.624;11.698;2023-01-08T13:09:53;39.05;;;23.40;;
66927;SDS011;59882;45.624;11.698;2023-01-08T13:12:33;38.42;;;22.52;;
66927;SDS011;59882;45.624;11.698;2023-01-08T13:15:00;36.60;;;22.70;;
66927;SDS011;59882;45.624;11.698;2023-01-08T13:17:26;35.33;;;20.52;;
66927;SDS011;59882;45.624;11.698;2023-01-08T13:20:03;31.30;;;19.67;;
66927;SDS011;59882;45.624;11.698;2023-01-08T13:22:31;31.65;;;19.80;;
66927;SDS011;59882;45.624;11.698;2023-01-08T13:27:39;34.50;;;20.38;;
66927;SDS011;59882;45.624;11.698;2023-01-08T13:35:51;38.28;;;21.42;;
66927;SDS011;59882;45.624;11.698;2023-01-08T13:38:31;40.05;;;23.20;;
66927;SDS011;59882;45.624;11.698;2023-01-08T13:40:56;41.00;;;23.83;;
66927;SDS011;59882;45.624;11.698;2023-01-08T13:43:23;37.88;;;24.17;;
66927;SDS011;59882;45.624;11.698;2023-01-08T13:48:29;42.50;;;25.65;;
66927;SDS011;59882;45.624;11.698;2023-01-08T13:51:00;43.43;;;25.43;;
66927;SDS011;59882;45.624;11.698;2023-01-08T13:53:26;43.20;;;26.02;;
66927;SDS011;59882;45.624;11.698;2023-01-08T13:56:00;47.35;;;27.42;;
66927;SDS011;59882;45.624;11.698;2023-01-08T13:58:35;44.37;;;27.37;;
66927;SDS011;59882;45.624;11.698;2023-01-08T14:01:06;45.30;;;26.85;;
66927;SDS011;59882;45.624;11.698;2023-01-08T14:03:35;45.55;;;27.80;;
66927;SDS011;59882;45.624;11.698;2023-01-08T14:06:05;46.55;;;28.00;;
66927;SDS011;59882;45.624;11.698;2023-01-08T14:08:32;47.15;;;30.08;;
66927;SDS011;59882;45.624;11.698;2023-01-08T14:10:58;46.50;;;28.73;;
66927;SDS011;59882;45.624;11.698;2023-01-08T14:13:28;47.72;;;28.75;;
66927;SDS011;59882;45.624;11.698;2023-01-08T14:15:58;49.58;;;28.58;;
66927;SDS011;59882;45.624;11.698;2023-01-08T14:18:28;46.25;;;28.63;;
66927;SDS011;59882;45.624;11.698;2023-01-08T14:20:54;47.20;;;28.00;;
66927;SDS011;59882;45.624;11.698;2023-01-08T14:23:25;45.90;;;29.33;;
66927;SDS011;59882;45.624;11.698;2023-01-08T14:25:52;45.83;;;27.75;;
66927;SDS011;59882;45.624;11.698;2023-01-08T14:28:19;50.47;;;29.20;;
66927;SDS011;59882;45.624;11.698;2023-01-08T14:30:47;48.85;;;29.10;;
66927;SDS011;59882;45.624;11.698;2023-01-08T14:33:13;49.42;;;29.98;;
66927;SDS011;59882;45.624;11.698;2023-01-08T14:35:40;52.15;;;30.35;;
66927;SDS011;59882;45.624;11.698;2023-01-08T14:38:10;60.43;;;33.70;;
66927;SDS011;59882;45.624;11.698;2023-01-08T14:40:37;51.05;;;30.48;;
66927;SDS011;59882;45.624;11.698;2023-01-08T14:43:11;48.05;;;29.60;;
66927;SDS011;59882;45.624;11.698;2023-01-08T14:45:43;51.45;;;31.38;;
66927;SDS011;59882;45.624;11.698;2023-01-08T14:48:24;52.03;;;30.08;;
66927;SDS011;59882;45.624;11.698;2023-01-08T14:51:06;48.47;;;30.33;;
66927;SDS011;59882;45.624;11.698;2023-01-08T14:53:35;53.60;;;30.17;;
66927;SDS011;59882;45.624;11.698;2023-01-08T14:56:06;52.20;;;30.88;;
66927;SDS011;59882;45.624;11.698;2023-01-08T14:58:37;51.90;;;32.47;;
66927;SDS011;59882;45.624;11.698;2023-01-08T15:01:16;58.10;;;33.45;;
66927;SDS011;59882;45.624;11.698;2023-01-08T15:03:44;54.10;;;31.80;;
66927;SDS011;59882;45.624;11.698;2023-01-08T15:06:22;59.05;;;34.38;;
66927;SDS011;59882;45.624;11.698;2023-01-08T15:08:52;56.38;;;33.05;;
66927;SDS011;59882;45.624;11.698;2023-01-08T15:13:51;65.32;;;36.90;;
66927;SDS011;59882;45.624;11.698;2023-01-08T15:19:04;64.80;;;35.97;;
66927;SDS011;59882;45.624;11.698;2023-01-08T15:21:44;63.95;;;36.60;;
66927;SDS011;59882;45.624;11.698;2023-01-08T15:24:24;63.00;;;37.08;;
66927;SDS011;59882;45.624;11.698;2023-01-08T15:26:57;75.68;;;43.15;;
66927;SDS011;59882;45.624;11.698;2023-01-08T15:29:28;76.90;;;44.57;;
66927;SDS011;59882;45.624;11.698;2023-01-08T15:32:06;69.80;;;40.10;;
66927;SDS011;59882;45.624;11.698;2023-01-08T15:34:32;62.05;;;38.25;;
66927;SDS011;59882;45.624;11.698;2023-01-08T15:36:58;63.97;;;37.63;;
66927;SDS011;59882;45.624;11.698;2023-01-08T15:39:23;60.65;;;37.13;;
66927;SDS011;59882;45.624;11.698;2023-01-08T15:41:49;59.87;;;36.27;;
66927;SDS011;59882;45.624;11.698;2023-01-08T15:44:33;64.88;;;37.03;;
66927;SDS011;59882;45.624;11.698;2023-01-08T15:46:59;64.60;;;39.83;;
66927;SDS011;59882;45.624;11.698;2023-01-08T15:49:24;72.78;;;43.25;;
66927;SDS011;59882;45.624;11.698;2023-01-08T15:51:50;70.27;;;40.87;;